Time;durP1;ratioP1;P1;durP2;ratioP2;P2;SDS_P1;SDS_P2;PMS_P1;PMS_P2;Temp;Humidity;BMP_temperature;BMP_pressure;BME280_temperature;BME280_humidity;BME280_pressure;Samples;Min_cycle;Max_cycle;Signal;HPM_P1;HPM_P2
2022/12/29 00:02:08;;;;;;;3.67;2.20;;;9.60;99.90;;;;;;5022461;28;20618;-73
2022/12/29 00:04:34;;;;;;;3.07;1.90;;;9.60;99.90;;;;;;5028621;28;20446;-73
2022/12/29 00:07:00;;;;;;;2.77;2.50;;;9.60;99.90;;;;;;5025559;28;20473;-72
2022/12/29 00:09:26;;;;;;;2.50;2.30;;;9.70;99.90;;;;;;5016284;28;20538;-73
2022/12/29 00:11:52;;;;;;;4.00;2.23;;;9.70;99.90;;;;;;5035647;28;20243;-70
2022/12/29 00:17:03;;;;;;;2.30;1.97;;;9.70;99.90;;;;;;5033581;28;20226;-72
2022/12/29 00:36:08;;;;;;;2.77;2.03;;;9.80;99.90;;;;;;5026663;28;20485;-73
2022/12/29 00:44:12;;;;;;;2.57;2.37;;;9.80;99.90;;;;;;5023807;28;20538;-73
2022/12/29 00:46:42;;;;;;;2.60;2.10;;;9.90;99.90;;;;;;5031413;28;20799;-73
2022/12/29 00:51:55;;;;;;;2.37;1.93;;;9.80;99.90;;;;;;5044007;28;20461;-72
2022/12/29 00:54:21;;;;;;;2.07;1.90;;;9.80;99.90;;;;;;5010624;28;20496;-73
2022/12/29 00:56:49;;;;;;;4.07;1.70;;;9.80;99.90;;;;;;5028271;28;20489;-72
2022/12/29 00:59:17;;;;;;;5.30;2.43;;;9.90;99.90;;;;;;5028559;28;20906;-73
2022/12/29 01:01:43;;;;;;;2.83;2.47;;;9.80;99.90;;;;;;5029703;28;20450;-72
2022/12/29 01:04:10;;;;;;;2.37;2.17;;;9.90;99.90;;;;;;5010928;28;20465;-72
2022/12/29 01:06:38;;;;;;;1.90;1.77;;;9.90;99.90;;;;;;5026220;28;20551;-73
2022/12/29 01:11:50;;;;;;;2.83;2.07;;;9.90;99.90;;;;;;5047755;28;20446;-73
2022/12/29 01:14:16;;;;;;;2.37;1.70;;;9.90;99.90;;;;;;5031476;28;20541;-73
2022/12/29 01:16:42;;;;;;;2.50;2.30;;;9.90;99.90;;;;;;5030645;28;20479;-73
2022/12/29 01:19:08;;;;;;;3.80;1.90;;;9.90;99.90;;;;;;5002934;28;20498;-73
2022/12/29 01:21:34;;;;;;;2.83;2.53;;;9.90;99.90;;;;;;5019274;28;20474;-73
2022/12/29 01:24:00;;;;;;;2.20;2.00;;;9.80;99.90;;;;;;5034285;28;20216;-73
2022/12/29 01:26:25;;;;;;;2.30;1.90;;;9.90;99.90;;;;;;5033752;28;20788;-73
2022/12/29 01:28:51;;;;;;;4.23;2.93;;;9.80;99.90;;;;;;5029322;28;20220;-73
2022/12/29 01:31:17;;;;;;;1.90;1.80;;;9.80;99.90;;;;;;5013601;28;20223;-73
2022/12/29 01:33:44;;;;;;;2.47;1.93;;;9.80;99.90;;;;;;5027671;28;20848;-73
2022/12/29 01:36:12;;;;;;;4.17;2.80;;;9.90;99.90;;;;;;5013007;28;20255;-73
2022/12/29 01:38:39;;;;;;;2.27;2.00;;;9.90;99.90;;;;;;5029544;28;20461;-73
2022/12/29 01:41:06;;;;;;;3.00;2.50;;;9.90;99.90;;;;;;5021187;28;20458;-73
2022/12/29 01:43:42;;;;;;;3.43;2.47;;;9.80;99.90;;;;;;5014380;28;20458;-72
2022/12/29 01:46:23;;;;;;;2.10;1.90;;;9.90;99.90;;;;;;5014353;28;20453;-73
2022/12/29 01:49:11;;;;;;;2.50;1.70;;;9.90;99.90;;;;;;5027014;28;20480;-70
2022/12/29 01:51:50;;;;;;;2.43;2.23;;;9.90;99.90;;;;;;5029857;28;20466;-72
2022/12/29 01:54:25;;;;;;;4.47;2.13;;;9.90;99.90;;;;;;5018933;28;20465;-73
2022/12/29 01:56:57;;;;;;;2.43;2.20;;;9.90;99.90;;;;;;5047594;28;20462;-73
2022/12/29 01:59:27;;;;;;;3.80;2.13;;;9.90;99.90;;;;;;5016600;28;20985;-72
2022/12/29 02:01:54;;;;;;;3.17;2.07;;;9.90;99.90;;;;;;5026245;28;20450;-73
2022/12/29 02:04:22;;;;;;;1.73;1.63;;;9.90;99.90;;;;;;5012731;28;20628;-73
2022/12/29 02:07:07;;;;;;;3.50;1.97;;;9.90;99.90;;;;;;5013310;28;20457;-73
2022/12/29 02:09:33;;;;;;;2.33;1.83;;;9.90;99.90;;;;;;5040967;28;21038;-73
2022/12/29 02:12:00;;;;;;;1.53;1.43;;;9.90;99.90;;;;;;5005367;28;20549;-73
2022/12/29 02:14:26;;;;;;;3.17;2.33;;;9.90;99.90;;;;;;5009056;28;20647;-73
2022/12/29 02:17:18;;;;;;;1.90;1.53;;;9.90;99.90;;;;;;5026278;28;20456;-72
2022/12/29 02:20:09;;;;;;;2.03;1.83;;;9.90;99.90;;;;;;5028592;28;20220;-72
2022/12/29 02:22:52;;;;;;;6.70;1.93;;;9.90;99.90;;;;;;5021230;28;20496;-73
2022/12/29 02:25:29;;;;;;;1.70;1.60;;;9.90;99.90;;;;;;5013197;28;20458;-73
2022/12/29 02:28:20;;;;;;;4.60;2.10;;;9.90;99.90;;;;;;5027793;28;20438;-73
2022/12/29 02:30:45;;;;;;;3.07;1.97;;;9.90;99.90;;;;;;5024362;28;20472;-73
2022/12/29 02:33:11;;;;;;;1.60;1.40;;;9.90;99.90;;;;;;5007968;28;20938;-72
2022/12/29 02:35:46;;;;;;;1.77;1.67;;;9.90;99.90;;;;;;5027789;28;20219;-73
2022/12/29 02:38:48;;;;;;;1.60;1.50;;;10.00;99.90;;;;;;5001391;28;20817;-72
2022/12/29 02:41:32;;;;;;;1.50;1.40;;;10.00;99.90;;;;;;5027754;28;20830;-73
2022/12/29 02:44:24;;;;;;;2.00;1.50;;;10.00;99.90;;;;;;5034907;28;20457;-71
2022/12/29 02:47:00;;;;;;;1.67;1.57;;;10.00;99.90;;;;;;5030370;28;20442;-72
2022/12/29 02:50:01;;;;;;;1.37;1.20;;;10.00;99.90;;;;;;5026875;28;20553;-73
2022/12/29 02:52:59;;;;;;;1.50;1.40;;;10.00;99.90;;;;;;5025466;28;20477;-73
2022/12/29 02:55:25;;;;;;;1.53;1.43;;;10.00;99.90;;;;;;5019718;28;20470;-72
2022/12/29 02:58:15;;;;;;;1.67;1.53;;;10.10;99.90;;;;;;5030268;28;20478;-72
2022/12/29 03:00:54;;;;;;;3.17;1.37;;;10.10;99.90;;;;;;5031832;28;20446;-72
2022/12/29 03:03:42;;;;;;;2.90;1.80;;;10.00;99.90;;;;;;5033946;28;20448;-72
2022/12/29 03:06:10;;;;;;;2.07;1.63;;;10.10;99.90;;;;;;5016532;28;20500;-73
2022/12/29 03:08:53;;;;;;;2.80;1.40;;;10.00;99.90;;;;;;5034406;28;20485;-72
2022/12/29 03:17:29;;;;;;;2.70;1.60;;;10.10;99.90;;;;;;5029923;28;20454;-73
2022/12/29 03:20:02;;;;;;;1.90;1.70;;;10.10;99.90;;;;;;5025886;28;20455;-73
2022/12/29 03:22:31;;;;;;;2.03;1.70;;;10.10;99.90;;;;;;5034230;28;20450;-73
2022/12/29 03:25:07;;;;;;;2.30;1.87;;;10.10;99.90;;;;;;5034352;28;20465;-72
2022/12/29 03:27:47;;;;;;;4.80;1.77;;;10.10;99.90;;;;;;5034605;28;20446;-73
2022/12/29 03:30:14;;;;;;;1.93;1.77;;;10.10;99.90;;;;;;5033619;28;20461;-73
2022/12/29 03:32:45;;;;;;;1.70;1.60;;;10.10;99.90;;;;;;5028049;28;20459;-73
2022/12/29 03:35:17;;;;;;;2.53;2.07;;;10.10;99.90;;;;;;5030528;28;20475;-72
2022/12/29 03:37:51;;;;;;;1.90;1.70;;;10.10;99.90;;;;;;5033392;28;20450;-73
2022/12/29 03:40:20;;;;;;;2.77;2.00;;;10.20;99.90;;;;;;5014175;28;20444;-73
2022/12/29 03:42:47;;;;;;;1.70;1.60;;;10.10;99.90;;;;;;5022320;28;20458;-73
2022/12/29 03:45:13;;;;;;;2.10;1.90;;;10.10;99.90;;;;;;5012418;28;20500;-73
2022/12/29 03:47:39;;;;;;;1.63;1.50;;;10.10;99.90;;;;;;5035187;28;20446;-73
2022/12/29 03:50:08;;;;;;;1.83;1.60;;;10.10;99.90;;;;;;5039891;28;20659;-73
2022/12/29 03:52:38;;;;;;;1.80;1.70;;;10.10;99.90;;;;;;5025917;28;20485;-73
2022/12/29 03:55:06;;;;;;;2.53;2.00;;;10.10;99.90;;;;;;5017212;28;20537;-73
2022/12/29 03:57:31;;;;;;;2.33;2.13;;;10.20;99.90;;;;;;5022336;28;20442;-73
2022/12/29 04:00:02;;;;;;;1.53;1.43;;;10.20;99.90;;;;;;5031966;28;20470;-72
2022/12/29 04:02:30;;;;;;;1.97;1.80;;;10.20;99.90;;;;;;5033794;28;20435;-73
2022/12/29 04:04:55;;;;;;;2.13;1.73;;;10.10;99.90;;;;;;5033783;28;20446;-73
2022/12/29 04:07:22;;;;;;;1.83;1.63;;;10.10;99.90;;;;;;5032771;28;20529;-73
2022/12/29 04:09:51;;;;;;;1.63;1.53;;;10.20;99.90;;;;;;5020114;28;20463;-71
2022/12/29 04:12:21;;;;;;;3.60;3.27;;;10.20;99.90;;;;;;5010440;28;20835;-72
2022/12/29 04:14:47;;;;;;;1.43;1.33;;;10.20;99.90;;;;;;5016829;28;20442;-73
2022/12/29 04:17:12;;;;;;;3.60;2.07;;;10.20;99.90;;;;;;5032464;28;20757;-73
2022/12/29 04:19:39;;;;;;;2.40;1.40;;;10.20;99.90;;;;;;5019166;28;20244;-73
2022/12/29 04:22:05;;;;;;;1.90;1.57;;;10.20;99.90;;;;;;5033198;28;20474;-72
2022/12/29 04:24:31;;;;;;;2.03;1.87;;;10.20;99.90;;;;;;5033832;28;20298;-73
2022/12/29 04:26:57;;;;;;;1.37;1.27;;;10.30;99.90;;;;;;5033775;28;20526;-72
2022/12/29 04:29:44;;;;;;;2.10;1.73;;;10.20;99.90;;;;;;5029991;28;20216;-72
2022/12/29 04:32:24;;;;;;;4.40;1.40;;;10.20;99.90;;;;;;5017902;28;20946;-73
2022/12/29 04:34:52;;;;;;;1.77;1.60;;;10.20;99.90;;;;;;5031948;28;20849;-73
2022/12/29 04:37:18;;;;;;;2.80;2.17;;;10.20;99.90;;;;;;5032444;28;20494;-73
2022/12/29 04:39:44;;;;;;;1.50;1.40;;;10.20;99.90;;;;;;5015890;28;20465;-73
2022/12/29 04:42:10;;;;;;;1.87;1.77;;;10.20;99.90;;;;;;5030837;28;20208;-73
2022/12/29 04:44:36;;;;;;;2.40;1.50;;;10.20;99.90;;;;;;5032801;28;20504;-73
2022/12/29 04:47:20;;;;;;;2.60;1.60;;;10.20;99.90;;;;;;5050427;28;20389;-73
2022/12/29 04:50:12;;;;;;;2.00;1.40;;;10.20;99.90;;;;;;5030370;28;20476;-73
2022/12/29 04:52:53;;;;;;;1.57;1.37;;;10.20;99.90;;;;;;5014509;28;20461;-73
2022/12/29 04:55:19;;;;;;;1.77;1.67;;;10.20;99.90;;;;;;5038420;28;20474;-72
2022/12/29 04:57:44;;;;;;;2.90;1.87;;;10.20;99.90;;;;;;5016946;28;20244;-72
2022/12/29 05:00:14;;;;;;;1.43;1.33;;;10.20;99.90;;;;;;5015114;28;20745;-72
2022/12/29 05:02:40;;;;;;;1.60;1.43;;;10.20;99.90;;;;;;5025634;28;21025;-73
2022/12/29 05:05:06;;;;;;;1.63;1.43;;;10.20;99.90;;;;;;5041014;28;20450;-73
2022/12/29 05:07:34;;;;;;;1.60;1.50;;;10.20;99.90;;;;;;5023205;28;20220;-72
2022/12/29 05:10:00;;;;;;;2.87;1.70;;;10.20;99.90;;;;;;5031188;28;20435;-72
2022/12/29 05:12:30;;;;;;;2.47;1.33;;;10.20;99.90;;;;;;5032366;28;21005;-73
2022/12/29 05:14:59;;;;;;;1.40;1.30;;;10.20;99.90;;;;;;5016138;28;20215;-72
2022/12/29 05:17:25;;;;;;;1.33;1.23;;;10.20;99.90;;;;;;5033283;28;20489;-72
2022/12/29 05:19:52;;;;;;;1.43;1.30;;;10.20;99.90;;;;;;5018936;28;20454;-71
2022/12/29 05:22:18;;;;;;;3.83;1.77;;;10.20;99.90;;;;;;5019225;28;20454;-72
2022/12/29 05:24:44;;;;;;;5.50;1.83;;;10.20;99.90;;;;;;5049109;28;20495;-73
2022/12/29 05:27:10;;;;;;;2.47;1.67;;;10.20;99.90;;;;;;5016128;28;20263;-73
2022/12/29 05:29:58;;;;;;;2.40;1.63;;;10.20;99.90;;;;;;5033063;28;20950;-72
2022/12/29 05:32:24;;;;;;;3.40;1.33;;;10.20;99.90;;;;;;5031183;28;20430;-72
2022/12/29 05:34:51;;;;;;;2.10;1.40;;;10.20;99.90;;;;;;5013944;28;20447;-72
2022/12/29 05:37:17;;;;;;;5.13;1.80;;;10.20;99.90;;;;;;5020745;28;20462;-72
2022/12/29 05:39:43;;;;;;;1.40;1.30;;;10.20;99.90;;;;;;5015451;28;20450;-73
2022/12/29 05:42:09;;;;;;;3.00;1.63;;;10.30;99.90;;;;;;5014794;28;20299;-73
2022/12/29 05:44:49;;;;;;;1.77;1.50;;;10.30;99.90;;;;;;5029378;28;20211;-73
2022/12/29 05:47:45;;;;;;;2.87;1.80;;;10.30;99.90;;;;;;5019257;28;20446;-72
2022/12/29 05:50:46;;;;;;;2.37;1.70;;;10.30;99.90;;;;;;5024219;28;20516;-72
2022/12/29 05:53:12;;;;;;;3.17;1.50;;;10.30;99.90;;;;;;5015020;28;20525;-72
2022/12/29 05:55:38;;;;;;;3.17;2.00;;;10.30;99.90;;;;;;5020527;28;20459;-73
2022/12/29 05:58:04;;;;;;;1.73;1.50;;;10.30;99.90;;;;;;5027838;28;20476;-74
2022/12/29 06:00:30;;;;;;;2.20;1.50;;;10.30;99.90;;;;;;5015381;28;20472;-72
2022/12/29 06:02:57;;;;;;;1.73;1.27;;;10.30;99.90;;;;;;5021541;28;20502;-71
2022/12/29 06:05:23;;;;;;;4.13;2.00;;;10.30;99.90;;;;;;5011463;28;20482;-73
2022/12/29 06:07:49;;;;;;;1.50;1.40;;;10.30;99.90;;;;;;5031841;28;20216;-71
2022/12/29 06:10:16;;;;;;;1.70;1.50;;;10.40;99.90;;;;;;5014328;28;20208;-73
2022/12/29 06:12:46;;;;;;;1.60;1.43;;;10.30;99.90;;;;;;5031295;28;20458;-73
2022/12/29 06:15:13;;;;;;;2.40;1.40;;;10.30;99.90;;;;;;5014447;28;20486;-73
2022/12/29 06:17:40;;;;;;;2.80;2.00;;;10.40;99.90;;;;;;5014624;28;20453;-72
2022/12/29 06:20:07;;;;;;;2.17;1.80;;;10.40;99.90;;;;;;5014669;28;20454;-73
2022/12/29 06:22:33;;;;;;;2.00;1.60;;;10.40;99.90;;;;;;5031218;28;20466;-72
2022/12/29 06:25:01;;;;;;;2.80;1.47;;;10.40;99.90;;;;;;5027879;28;20447;-72
2022/12/29 06:27:27;;;;;;;1.60;1.50;;;10.30;99.90;;;;;;5021719;28;20454;-73
2022/12/29 06:29:53;;;;;;;1.87;1.60;;;10.40;99.90;;;;;;5014893;28;20818;-72
2022/12/29 06:32:18;;;;;;;2.10;1.67;;;10.40;99.90;;;;;;5016193;28;20212;-73
2022/12/29 06:34:49;;;;;;;1.67;1.57;;;10.30;99.90;;;;;;5031318;28;20208;-72
2022/12/29 06:37:15;;;;;;;2.13;1.90;;;10.40;99.90;;;;;;5038312;28;20473;-73
2022/12/29 06:39:40;;;;;;;2.10;1.60;;;10.40;99.90;;;;;;5036154;28;20266;-73
2022/12/29 06:42:10;;;;;;;3.80;2.20;;;10.40;99.90;;;;;;5033990;28;20212;-73
2022/12/29 06:44:58;;;;;;;3.97;1.93;;;10.40;99.90;;;;;;5037368;28;20466;-73
2022/12/29 06:47:24;;;;;;;2.53;1.70;;;10.40;99.90;;;;;;5037058;28;20467;-73
2022/12/29 06:49:49;;;;;;;2.00;1.50;;;10.40;99.90;;;;;;5052416;28;20980;-73
2022/12/29 06:52:15;;;;;;;3.07;2.40;;;10.40;99.90;;;;;;5027832;28;20695;-73
2022/12/29 06:54:41;;;;;;;1.60;1.50;;;10.40;99.90;;;;;;5008710;28;20220;-73
2022/12/29 06:57:07;;;;;;;2.70;1.90;;;10.40;99.90;;;;;;5014254;28;20732;-73
2022/12/29 06:59:32;;;;;;;2.73;1.70;;;10.40;99.90;;;;;;5031087;28;20224;-72
2022/12/29 07:01:58;;;;;;;2.07;1.87;;;10.50;99.90;;;;;;5035241;28;20325;-73
2022/12/29 07:04:24;;;;;;;2.90;2.17;;;10.50;99.90;;;;;;5017914;28;20272;-72
2022/12/29 07:06:49;;;;;;;3.70;2.63;;;10.40;99.90;;;;;;5032855;28;20220;-72
2022/12/29 07:09:15;;;;;;;4.10;2.27;;;10.40;99.90;;;;;;5033153;28;20250;-73
2022/12/29 07:11:41;;;;;;;3.00;2.07;;;10.40;99.90;;;;;;5026182;28;20216;-72
2022/12/29 07:14:06;;;;;;;6.83;2.30;;;10.40;99.90;;;;;;5033679;28;20222;-73
2022/12/29 07:16:34;;;;;;;2.63;1.80;;;10.40;99.90;;;;;;5035114;28;20738;-73
2022/12/29 07:18:59;;;;;;;2.10;2.00;;;10.40;99.90;;;;;;5014642;28;20223;-73
2022/12/29 07:21:25;;;;;;;5.97;3.20;;;10.40;99.90;;;;;;5019438;28;20450;-73
2022/12/29 07:23:51;;;;;;;2.70;2.50;;;10.40;99.90;;;;;;5017978;28;20224;-73
2022/12/29 07:26:17;;;;;;;3.37;3.13;;;10.40;99.90;;;;;;5033384;28;20215;-73
2022/12/29 07:28:44;;;;;;;4.70;4.30;;;10.40;99.90;;;;;;5032842;28;20227;-73
2022/12/29 07:31:18;;;;;;;6.77;5.30;;;10.40;99.90;;;;;;5016026;28;20471;-74
2022/12/29 07:33:44;;;;;;;3.50;2.70;;;10.40;99.90;;;;;;5016224;28;20469;-72
2022/12/29 07:36:11;;;;;;;6.80;3.67;;;10.40;99.90;;;;;;5015577;28;20461;-73
2022/12/29 07:38:37;;;;;;;4.90;4.40;;;10.40;99.90;;;;;;5017098;28;20462;-73
2022/12/29 07:41:03;;;;;;;4.90;4.30;;;10.40;99.90;;;;;;5017295;28;20463;-73
2022/12/29 07:43:28;;;;;;;5.10;3.97;;;10.40;99.90;;;;;;5030555;28;20853;-73
2022/12/29 07:46:14;;;;;;;3.90;3.43;;;10.40;99.90;;;;;;5027698;28;20278;-73
2022/12/29 07:48:39;;;;;;;6.33;4.27;;;10.40;99.90;;;;;;5051779;28;20463;-73
2022/12/29 07:51:06;;;;;;;7.07;6.27;;;10.40;99.90;;;;;;5016827;28;20241;-72
2022/12/29 07:53:31;;;;;;;12.97;6.20;;;10.40;99.90;;;;;;5016701;28;20208;-72
2022/12/29 07:55:57;;;;;;;6.87;6.17;;;10.40;99.90;;;;;;5033844;28;20482;-72
2022/12/29 07:58:23;;;;;;;10.53;6.53;;;10.40;99.90;;;;;;5011399;28;20225;-73
2022/12/29 08:00:56;;;;;;;6.10;4.20;;;10.40;99.90;;;;;;5033093;28;20272;-73
2022/12/29 08:03:23;;;;;;;7.93;3.23;;;10.40;99.90;;;;;;5033013;28;20225;-73
2022/12/29 08:05:49;;;;;;;3.67;2.67;;;10.40;99.90;;;;;;5008239;28;20460;-72
2022/12/29 08:08:14;;;;;;;2.70;2.37;;;10.40;99.90;;;;;;5015628;28;20454;-73
2022/12/29 08:10:40;;;;;;;2.80;2.43;;;10.40;99.90;;;;;;5029990;28;20994;-72
2022/12/29 08:13:06;;;;;;;2.87;2.37;;;10.40;99.90;;;;;;5032149;28;20277;-73
2022/12/29 08:15:31;;;;;;;2.90;2.17;;;10.40;99.90;;;;;;5030870;28;20230;-74
2022/12/29 08:17:57;;;;;;;4.10;3.10;;;10.40;99.90;;;;;;5026856;28;20219;-73
2022/12/29 08:20:23;;;;;;;5.23;3.60;;;10.40;99.90;;;;;;5038633;28;20698;-73
2022/12/29 08:22:50;;;;;;;3.83;2.67;;;10.40;99.90;;;;;;5033106;28;20216;-73
2022/12/29 08:25:16;;;;;;;6.07;3.90;;;10.40;99.90;;;;;;5015938;28;20450;-73
2022/12/29 08:27:41;;;;;;;4.63;4.10;;;10.40;99.90;;;;;;5031503;28;20450;-73
2022/12/29 08:30:08;;;;;;;8.23;3.93;;;10.40;99.90;;;;;;5002514;28;20229;-73
2022/12/29 08:32:34;;;;;;;5.33;3.40;;;10.40;99.90;;;;;;5010186;28;20220;-73
2022/12/29 08:35:00;;;;;;;6.00;2.80;;;10.40;99.90;;;;;;5008234;28;20989;-73
2022/12/29 08:37:26;;;;;;;3.50;2.53;;;10.40;99.90;;;;;;5008627;28;20229;-73
2022/12/29 08:39:51;;;;;;;6.20;3.10;;;10.40;99.90;;;;;;5005749;28;20508;-73
2022/12/29 08:42:17;;;;;;;4.53;2.63;;;10.40;99.90;;;;;;5026785;28;20227;-73
2022/12/29 08:44:43;;;;;;;5.17;2.97;;;10.40;99.90;;;;;;5018981;28;20220;-73
2022/12/29 08:47:10;;;;;;;4.00;2.80;;;10.40;99.90;;;;;;5020579;28;20236;-73
2022/12/29 08:49:36;;;;;;;4.37;3.77;;;10.40;99.90;;;;;;5023832;28;20302;-74
2022/12/29 08:52:03;;;;;;;7.43;3.20;;;10.40;99.90;;;;;;5029721;28;20458;-73
2022/12/29 08:54:29;;;;;;;2.83;2.63;;;10.40;99.90;;;;;;5029270;28;20516;-73
2022/12/29 08:56:54;;;;;;;4.30;3.87;;;10.40;99.90;;;;;;5013571;28;20479;-73
2022/12/29 08:59:24;;;;;;;4.17;3.77;;;10.40;99.90;;;;;;5030494;28;20212;-73
2022/12/29 09:01:49;;;;;;;3.47;3.00;;;10.40;99.90;;;;;;5033333;28;20481;-73
2022/12/29 09:04:15;;;;;;;6.00;3.10;;;10.40;99.90;;;;;;5008656;28;20981;-73
2022/12/29 09:06:41;;;;;;;12.57;6.63;;;10.40;99.90;;;;;;5011136;28;20223;-73
2022/12/29 09:09:07;;;;;;;21.13;10.57;;;10.40;99.90;;;;;;5005831;28;20216;-73
2022/12/29 09:11:33;;;;;;;21.37;13.40;;;10.40;99.90;;;;;;5028706;28;20246;-73
2022/12/29 09:13:58;;;;;;;27.27;16.27;;;10.40;99.90;;;;;;5022575;28;20258;-73
2022/12/29 09:16:24;;;;;;;30.07;17.90;;;10.30;99.90;;;;;;5023467;28;20279;-73
2022/12/29 09:18:50;;;;;;;19.30;11.20;;;10.30;99.90;;;;;;5012719;28;20362;-73
2022/12/29 09:21:16;;;;;;;8.83;6.10;;;10.30;99.90;;;;;;5013524;28;20451;-73
2022/12/29 09:23:42;;;;;;;12.73;5.07;;;10.30;99.90;;;;;;5008007;28;20940;-73
2022/12/29 09:26:09;;;;;;;5.87;4.37;;;10.40;99.90;;;;;;5009247;28;20797;-73
2022/12/29 09:28:35;;;;;;;7.47;5.10;;;10.40;99.90;;;;;;5009221;28;20221;-73
2022/12/29 09:31:00;;;;;;;8.93;5.43;;;10.30;99.90;;;;;;5028933;28;20458;-73
2022/12/29 09:33:27;;;;;;;7.90;5.00;;;10.30;99.90;;;;;;5023023;28;20457;-73
2022/12/29 09:35:55;;;;;;;6.93;5.00;;;10.30;99.90;;;;;;5024938;28;20228;-73
2022/12/29 09:38:21;;;;;;;4.13;3.73;;;10.40;99.90;;;;;;5008297;28;20884;-73
2022/12/29 09:40:56;;;;;;;6.40;3.30;;;10.30;99.90;;;;;;5028073;28;20462;-73
2022/12/29 09:43:50;;;;;;;5.77;3.50;;;10.30;99.90;;;;;;5007947;28;20495;-72
2022/12/29 09:46:31;;;;;;;2.90;2.10;;;10.20;99.90;;;;;;5022248;28;20480;-73
2022/12/29 09:49:23;;;;;;;2.93;2.73;;;10.20;99.90;;;;;;5024753;28;20458;-73
2022/12/29 09:51:53;;;;;;;2.13;1.53;;;10.20;99.90;;;;;;5029168;28;20462;-73
2022/12/29 09:54:24;;;;;;;2.00;1.80;;;10.20;99.90;;;;;;5005330;28;21016;-73
2022/12/29 09:56:52;;;;;;;1.50;1.40;;;10.10;99.90;;;;;;5009843;28;20477;-73
2022/12/29 09:59:23;;;;;;;1.73;1.63;;;10.10;99.90;;;;;;5022140;28;20467;-73
2022/12/29 10:02:11;;;;;;;1.80;1.70;;;10.00;99.90;;;;;;5008108;28;20467;-73
2022/12/29 10:04:44;;;;;;;2.10;1.50;;;10.10;99.90;;;;;;5009779;28;20450;-73
2022/12/29 10:07:18;;;;;;;1.27;1.00;;;10.00;99.90;;;;;;5011558;28;20474;-73
2022/12/29 10:10:10;;;;;;;1.40;1.10;;;10.00;99.90;;;;;;5010857;28;20871;-73
2022/12/29 10:13:02;;;;;;;1.00;0.90;;;10.00;99.90;;;;;;5012075;28;20446;-72
2022/12/29 10:15:56;;;;;;;0.90;0.87;;;10.00;99.90;;;;;;5006648;28;20471;-73
2022/12/29 10:18:27;;;;;;;1.00;0.67;;;10.00;99.90;;;;;;5022725;28;20467;-74
2022/12/29 10:21:27;;;;;;;1.70;1.00;;;10.00;99.90;;;;;;5024929;28;20450;-73
2022/12/29 10:23:54;;;;;;;0.80;0.80;;;10.00;99.90;;;;;;5023929;28;20530;-73
2022/12/29 10:26:33;;;;;;;2.50;0.80;;;10.10;99.90;;;;;;5003339;28;20451;-73
2022/12/29 10:29:04;;;;;;;1.20;1.07;;;10.10;99.90;;;;;;5020499;28;20466;-73
2022/12/29 10:31:59;;;;;;;1.27;1.00;;;10.10;99.90;;;;;;5007925;28;20458;-74
2022/12/29 10:34:29;;;;;;;1.50;1.00;;;10.10;99.90;;;;;;5004219;28;20446;-73
2022/12/29 10:37:02;;;;;;;4.50;3.87;;;10.10;99.90;;;;;;5020915;28;20467;-72
2022/12/29 10:39:43;;;;;;;23.37;15.30;;;10.10;99.90;;;;;;5022943;28;20463;-73
2022/12/29 10:42:30;;;;;;;12.63;9.30;;;10.10;99.90;;;;;;5001390;28;20477;-73
2022/12/29 10:45:00;;;;;;;20.50;10.33;;;10.10;99.90;;;;;;5020392;28;20557;-74
2022/12/29 10:47:36;;;;;;;41.93;20.27;;;10.20;99.90;;;;;;5021329;28;20463;-72
2022/12/29 10:50:03;;;;;;;65.47;32.33;;;10.20;99.90;;;;;;5025761;28;20528;-72
2022/12/29 10:52:35;;;;;;;77.93;39.60;;;10.30;99.90;;;;;;5014284;28;20458;-73
2022/12/29 10:55:13;;;;;;;50.20;28.33;;;10.30;99.90;;;;;;5007155;28;20467;-72
2022/12/29 10:57:44;;;;;;;26.20;16.00;;;10.40;99.90;;;;;;5004482;28;20457;-72
2022/12/29 11:00:24;;;;;;;12.80;8.80;;;10.40;99.90;;;;;;5027942;28;20577;-72
2022/12/29 11:03:17;;;;;;;5.03;4.33;;;10.40;99.90;;;;;;5026668;28;20447;-72
2022/12/29 11:06:03;;;;;;;1.70;1.37;;;10.50;99.90;;;;;;5026432;28;20450;-73
2022/12/29 11:08:36;;;;;;;3.17;1.07;;;10.50;99.90;;;;;;5004862;28;20513;-74
2022/12/29 11:11:07;;;;;;;1.90;0.83;;;10.50;99.90;;;;;;5013640;28;20462;-74
2022/12/29 11:13:45;;;;;;;3.90;0.77;;;10.50;99.90;;;;;;5004230;28;20450;-73
2022/12/29 11:16:12;;;;;;;1.53;1.00;;;10.60;99.90;;;;;;5012293;28;20544;-74
2022/12/29 11:18:40;;;;;;;3.53;1.13;;;10.60;99.90;;;;;;5046539;28;20454;-74
2022/12/29 11:21:24;;;;;;;2.37;1.03;;;10.60;99.90;;;;;;5028750;28;20533;-73
2022/12/29 11:24:05;;;;;;;0.97;0.87;;;10.60;99.90;;;;;;5030941;28;20442;-73
2022/12/29 11:26:32;;;;;;;2.73;1.17;;;10.60;99.90;;;;;;5031399;28;20438;-73
2022/12/29 11:29:41;;;;;;;3.77;3.17;;;10.70;99.90;;;;;;5029980;28;20451;-73
2022/12/29 11:32:18;;;;;;;8.23;5.53;;;10.60;99.90;;;;;;4929417;28;20491;-73
2022/12/29 11:34:44;;;;;;;2.40;2.17;;;10.60;99.90;;;;;;5041646;28;20508;-73
2022/12/29 11:37:29;;;;;;;3.30;1.63;;;10.70;99.90;;;;;;5014063;28;20558;-74
2022/12/29 11:39:59;;;;;;;3.50;2.50;;;10.70;99.90;;;;;;5031271;28;20482;-72
2022/12/29 11:42:49;;;;;;;3.80;1.93;;;10.70;99.90;;;;;;5045713;28;20461;-73
2022/12/29 11:45:26;;;;;;;2.00;0.93;;;10.70;99.90;;;;;;5016139;28;20463;-74
2022/12/29 11:47:58;;;;;;;1.20;1.00;;;10.70;99.90;;;;;;5029180;28;20470;-73
2022/12/29 11:50:29;;;;;;;1.67;1.10;;;10.70;99.90;;;;;;5031161;28;20465;-74
2022/12/29 11:53:15;;;;;;;0.63;0.63;;;10.70;99.90;;;;;;5044022;28;20465;-73
2022/12/29 11:55:50;;;;;;;3.30;1.50;;;10.70;99.90;;;;;;5015276;28;20462;-74
2022/12/29 11:58:16;;;;;;;3.67;2.60;;;10.70;99.90;;;;;;5014504;28;20461;-74
2022/12/29 12:00:44;;;;;;;3.57;2.83;;;10.70;99.90;;;;;;5026740;28;20526;-74
2022/12/29 12:03:22;;;;;;;5.43;4.00;;;10.70;99.90;;;;;;5031514;28;20466;-74
2022/12/29 12:06:01;;;;;;;14.00;9.47;;;10.70;99.90;;;;;;5022697;28;20462;-74
2022/12/29 12:08:38;;;;;;;25.13;14.33;;;10.70;99.90;;;;;;5003750;28;20974;-73
2022/12/29 12:11:11;;;;;;;26.33;15.80;;;10.70;99.90;;;;;;5028956;28;20462;-74
2022/12/29 12:13:56;;;;;;;28.97;17.70;;;10.70;99.90;;;;;;5028337;28;20454;-74
2022/12/29 12:16:33;;;;;;;22.73;13.70;;;10.70;99.90;;;;;;5027169;28;20489;-73
2022/12/29 12:19:24;;;;;;;11.57;7.90;;;10.70;99.90;;;;;;5014278;28;20466;-74
2022/12/29 12:21:58;;;;;;;8.57;5.90;;;10.80;99.90;;;;;;5046427;28;20466;-74
2022/12/29 12:24:54;;;;;;;3.23;2.93;;;10.80;99.90;;;;;;5023976;28;20515;-73
2022/12/29 12:27:22;;;;;;;2.00;1.50;;;10.80;99.90;;;;;;5045418;28;20462;-74
2022/12/29 12:30:03;;;;;;;2.83;1.33;;;10.80;99.90;;;;;;5028613;28;20462;-74
2022/12/29 12:32:42;;;;;;;3.17;1.90;;;10.80;99.90;;;;;;5029056;28;20446;-74
2022/12/29 12:35:24;;;;;;;3.53;2.10;;;10.70;99.90;;;;;;5029335;28;20458;-74
2022/12/29 12:38:13;;;;;;;3.23;2.00;;;10.70;99.90;;;;;;5007725;28;20464;-75
2022/12/29 12:40:48;;;;;;;2.90;1.43;;;10.80;99.90;;;;;;5024449;28;20447;-73
2022/12/29 12:43:41;;;;;;;2.07;1.47;;;10.90;99.90;;;;;;5041391;28;20451;-73
2022/12/29 12:46:34;;;;;;;2.10;1.40;;;10.90;99.90;;;;;;5047956;28;20540;-72
2022/12/29 12:49:00;;;;;;;1.17;1.03;;;10.90;99.90;;;;;;5011774;28;20457;-74
2022/12/29 12:51:40;;;;;;;2.60;1.03;;;10.90;99.90;;;;;;5042769;28;20459;-74
2022/12/29 12:54:18;;;;;;;1.77;1.50;;;10.90;99.90;;;;;;5026340;28;20290;-73
2022/12/29 12:56:44;;;;;;;2.03;1.50;;;10.90;99.90;;;;;;5001269;28;20467;-74
2022/12/29 12:59:12;;;;;;;5.40;3.67;;;10.90;99.90;;;;;;5025165;28;20973;-74
2022/12/29 13:01:42;;;;;;;8.70;5.93;;;10.90;99.90;;;;;;5045195;28;20219;-74
2022/12/29 13:04:37;;;;;;;9.13;6.07;;;10.90;99.90;;;;;;5029131;28;20466;-74
2022/12/29 13:07:50;;;;;;;17.57;11.20;;;11.00;99.90;;;;;;4978353;28;20519;-74
2022/12/29 13:10:40;;;;;;;8.03;7.23;;;11.00;99.90;;;;;;5009265;28;20459;-73
2022/12/29 13:13:32;;;;;;;12.27;7.70;;;11.00;99.90;;;;;;5043503;28;20486;-73
2022/12/29 13:16:24;;;;;;;11.63;7.43;;;10.90;99.90;;;;;;5044008;28;20466;-74
2022/12/29 13:19:16;;;;;;;15.47;10.87;;;11.00;99.90;;;;;;5029137;28;20463;-73
2022/12/29 13:22:09;;;;;;;17.43;10.77;;;11.00;99.90;;;;;;5035299;28;20451;-73
2022/12/29 13:24:59;;;;;;;9.93;6.30;;;11.00;99.90;;;;;;5040023;28;20535;-74
2022/12/29 13:27:34;;;;;;;2.67;2.23;;;11.00;99.90;;;;;;5030809;28;20839;-70
2022/12/29 13:30:09;;;;;;;2.90;2.23;;;11.00;99.90;;;;;;5014797;28;21093;-74
2022/12/29 13:32:54;;;;;;;3.87;3.10;;;11.00;99.90;;;;;;5024324;28;20438;-73
2022/12/29 13:35:26;;;;;;;3.70;2.83;;;11.00;99.90;;;;;;5047159;28;20442;-74
2022/12/29 13:37:57;;;;;;;2.73;2.53;;;11.00;99.90;;;;;;5029119;28;20458;-73
2022/12/29 13:40:28;;;;;;;7.80;3.00;;;11.00;99.90;;;;;;5006514;28;20451;-74
2022/12/29 13:42:56;;;;;;;5.07;2.90;;;11.00;99.90;;;;;;5007842;28;20450;-71
2022/12/29 13:45:26;;;;;;;8.43;3.37;;;10.90;99.90;;;;;;5021897;28;20500;-71
2022/12/29 13:48:14;;;;;;;6.10;3.53;;;10.90;99.90;;;;;;5008115;28;20473;-70
2022/12/29 13:50:40;;;;;;;4.10;2.00;;;10.90;99.90;;;;;;5011646;28;20459;-71
2022/12/29 13:53:38;;;;;;;2.00;1.23;;;10.90;99.90;;;;;;5018006;28;20466;-70